createdAt,value
2018-04-06T00:01:54.216Z,10.80
2018-04-06T00:04:22.452Z,14.40
2018-04-06T00:06:50.864Z,17.57
2018-04-06T00:09:19.162Z,15.77
2018-04-06T00:11:47.516Z,9.07
2018-04-06T00:14:15.775Z,14.13
2018-04-06T00:16:44.257Z,12.07
2018-04-06T00:19:12.668Z,11.70
2018-04-06T00:21:40.985Z,14.17
2018-04-06T00:24:10.045Z,9.63
2018-04-06T00:26:38.361Z,13.97
2018-04-06T00:29:06.602Z,10.87
2018-04-06T00:31:34.882Z,10.87
2018-04-06T00:34:03.127Z,11.97
2018-04-06T00:36:31.429Z,10.97
2018-04-06T00:38:59.719Z,13.90
2018-04-06T00:41:28.018Z,12.17
2018-04-06T00:43:57.059Z,16.17
2018-04-06T00:46:25.430Z,12.90
2018-04-06T00:48:54.035Z,12.70
2018-04-06T00:51:22.335Z,11.20
2018-04-06T00:53:50.624Z,15.90
2018-04-06T00:56:18.907Z,13.07
2018-04-06T00:58:48.143Z,9.63
2018-04-06T01:01:16.467Z,12.60
2018-04-06T01:03:45.746Z,14.43
2018-04-06T01:06:14.017Z,12.33
2018-04-06T01:08:42.360Z,12.40
2018-04-06T01:11:10.833Z,15.73
2018-04-06T01:13:39.288Z,14.97
2018-04-06T01:16:08.657Z,13.60
2018-04-06T01:18:37.020Z,12.13
2018-04-06T01:21:05.420Z,10.77
2018-04-06T01:23:33.648Z,18.07
2018-04-06T01:26:02.637Z,8.50
2018-04-06T01:28:30.987Z,9.03
2018-04-06T01:30:59.225Z,8.40
2018-04-06T01:33:27.684Z,9.57
2018-04-06T01:35:55.936Z,11.17
2018-04-06T01:38:24.887Z,11.47
2018-04-06T01:40:53.300Z,14.83
2018-04-06T01:43:22.564Z,12.93
2018-04-06T01:45:50.783Z,8.60
2018-04-06T01:48:19.861Z,10.73
2018-04-06T01:50:48.169Z,14.43
2018-04-06T01:53:16.453Z,13.43
2018-04-06T01:55:45.439Z,12.33
2018-04-06T01:58:13.999Z,13.37
2018-04-06T02:00:43.102Z,12.90
2018-04-06T02:03:12.353Z,10.03
2018-04-06T02:05:40.578Z,13.23
2018-04-06T02:08:09.795Z,13.13
2018-04-06T02:10:38.065Z,10.27
2018-04-06T02:13:06.400Z,13.63
2018-04-06T02:15:34.827Z,15.37
2018-04-06T02:18:03.221Z,10.77
2018-04-06T02:20:31.849Z,14.10
2018-04-06T02:23:07.470Z,13.80
2018-04-06T02:25:36.077Z,14.00
2018-04-06T02:28:04.410Z,12.77
2018-04-06T02:30:32.735Z,12.00
2018-04-06T02:33:00.958Z,12.43
2018-04-06T02:35:29.389Z,18.57
2018-04-06T02:37:57.619Z,13.93
2018-04-06T02:40:25.858Z,15.63
2018-04-06T02:42:54.071Z,13.13
2018-04-06T02:45:22.381Z,13.73
2018-04-06T02:47:50.583Z,9.60
2018-04-06T02:50:19.693Z,12.40
2018-04-06T02:52:49.000Z,13.43
2018-04-06T02:55:18.171Z,14.90
2018-04-06T02:57:46.403Z,10.57
2018-04-06T03:00:14.805Z,10.77
2018-04-06T03:02:43.097Z,9.10
2018-04-06T03:05:12.069Z,11.40
2018-04-06T03:07:40.391Z,19.60
2018-04-06T03:10:09.575Z,12.30
2018-04-06T03:12:37.849Z,9.60
2018-04-06T03:15:06.268Z,13.17
2018-04-06T03:17:34.511Z,12.60
2018-04-06T03:20:02.904Z,12.73
2018-04-06T03:22:31.904Z,11.83
2018-04-06T03:25:01.307Z,11.43
2018-04-06T03:27:30.300Z,12.03
2018-04-06T03:29:59.432Z,12.60
2018-04-06T03:32:28.180Z,13.43
2018-04-06T03:34:57.639Z,12.60
2018-04-06T03:37:25.933Z,13.37
2018-04-06T03:39:55.061Z,12.57
2018-04-06T03:42:24.255Z,13.13
2018-04-06T03:44:53.380Z,13.07
2018-04-06T03:47:21.668Z,14.60
2018-04-06T03:49:49.981Z,15.40
2018-04-06T03:52:19.165Z,13.37
2018-04-06T03:54:47.792Z,15.60
2018-04-06T03:57:16.872Z,14.57
2018-04-06T03:59:45.755Z,19.03
2018-04-06T04:02:15.095Z,13.80
2018-04-06T04:04:43.452Z,12.83
2018-04-06T04:07:12.851Z,20.27
2018-04-06T04:09:41.926Z,15.87
2018-04-06T04:12:10.531Z,11.70
2018-04-06T04:14:39.752Z,11.53
2018-04-06T04:17:09.072Z,14.20
2018-04-06T04:19:37.427Z,11.67
2018-04-06T04:22:05.689Z,12.97
2018-04-06T04:24:34.727Z,13.20
2018-04-06T04:27:02.996Z,13.13
2018-04-06T04:29:31.373Z,12.07
2018-04-06T04:31:59.980Z,12.03
2018-04-06T04:34:28.416Z,15.23
2018-04-06T04:36:56.704Z,11.17
2018-04-06T04:39:25.275Z,14.57
2018-04-06T04:41:54.419Z,11.77
2018-04-06T04:44:23.322Z,12.53
2018-04-06T04:46:51.682Z,17.07
2018-04-06T04:49:20.295Z,11.67
2018-04-06T04:51:50.462Z,15.13
2018-04-06T04:54:18.990Z,15.87
2018-04-06T04:56:47.419Z,13.50
2018-04-06T04:59:15.676Z,17.13
2018-04-06T05:01:44.997Z,12.20
2018-04-06T05:04:13.317Z,11.83
2018-04-06T05:06:41.599Z,12.07
2018-04-06T05:09:09.987Z,14.93
2018-04-06T05:11:38.327Z,13.70
2018-04-06T05:14:06.610Z,12.27
2018-04-06T05:16:35.349Z,14.87
2018-04-06T05:19:04.546Z,12.50
2018-04-06T05:21:33.923Z,15.00
2018-04-06T05:24:02.239Z,14.80
2018-04-06T05:26:31.532Z,14.40
2018-04-06T05:29:00.642Z,19.27
2018-04-06T05:31:29.040Z,14.37
2018-04-06T05:33:57.696Z,10.27
2018-04-06T05:36:26.939Z,15.63
2018-04-06T05:38:55.638Z,18.23
2018-04-06T05:41:24.184Z,14.80
2018-04-06T05:43:52.779Z,11.83
2018-04-06T05:46:21.088Z,10.83
2018-04-06T05:48:49.393Z,10.40
2018-04-06T05:51:17.700Z,13.70
2018-04-06T05:53:45.999Z,9.30
2018-04-06T05:56:14.292Z,18.63
2018-04-06T05:58:42.615Z,12.70
2018-04-06T06:01:12.194Z,11.50
2018-04-06T06:03:40.854Z,17.73
2018-04-06T06:06:09.125Z,13.43
2018-04-06T06:08:37.396Z,16.40
2018-04-06T06:11:05.693Z,9.80
2018-04-06T06:13:34.102Z,14.60
2018-04-06T06:16:02.509Z,15.27
2018-04-06T06:18:30.968Z,13.27
2018-04-06T06:21:00.758Z,13.97
2018-04-06T06:23:29.859Z,11.43
2018-04-06T06:25:58.176Z,13.03
2018-04-06T06:28:26.455Z,12.27
2018-04-06T06:30:54.733Z,14.27
2018-04-06T06:33:23.098Z,14.30
2018-04-06T06:35:52.472Z,19.13
2018-04-06T06:38:20.727Z,16.40
2018-04-06T06:40:49.055Z,17.43
2018-04-06T06:43:18.151Z,12.37
2018-04-06T06:45:47.526Z,13.67
2018-04-06T06:48:16.810Z,16.03
2018-04-06T06:50:45.288Z,17.13
2018-04-06T06:53:13.793Z,20.23
2018-04-06T06:55:42.450Z,17.10
2018-04-06T06:58:10.811Z,10.40
2018-04-06T07:00:39.292Z,13.53
2018-04-06T07:03:07.922Z,14.87
2018-04-06T07:05:36.244Z,16.30
2018-04-06T07:08:04.473Z,14.37
2018-04-06T07:10:32.864Z,17.67
2018-04-06T07:13:01.182Z,15.83
2018-04-06T07:15:29.979Z,15.73
2018-04-06T07:17:58.336Z,15.50
2018-04-06T07:20:27.773Z,15.70
2018-04-06T07:22:57.863Z,13.97
2018-04-06T07:25:27.485Z,15.97
2018-04-06T07:27:56.068Z,15.93
2018-04-06T07:30:24.412Z,13.43
2018-04-06T07:32:53.401Z,15.40
2018-04-06T07:35:22.093Z,13.33
2018-04-06T07:37:51.222Z,19.20
2018-04-06T07:40:19.571Z,15.63
2018-04-06T07:42:48.680Z,13.80
2018-04-06T07:45:17.756Z,12.90
2018-04-06T07:47:46.164Z,11.53
2018-04-06T07:50:14.472Z,11.53
2018-04-06T07:52:43.008Z,14.03
2018-04-06T07:55:12.303Z,14.73
2018-04-06T07:57:41.597Z,15.57
2018-04-06T08:00:09.936Z,14.67
2018-04-06T08:02:38.194Z,11.57
2018-04-06T08:05:06.979Z,13.83
2018-04-06T08:07:35.436Z,10.10
2018-04-06T08:10:04.652Z,9.20
2018-04-06T08:12:33.068Z,9.10
2018-04-06T08:15:01.505Z,13.10
2018-04-06T08:17:29.886Z,11.17
2018-04-06T08:19:58.380Z,13.10
2018-04-06T08:22:26.908Z,8.77
2018-04-06T08:24:55.197Z,9.53
2018-04-06T08:27:23.493Z,9.73
2018-04-06T08:29:53.031Z,10.43
2018-04-06T08:32:21.417Z,10.00
2018-04-06T08:34:49.665Z,8.20
2018-04-06T08:37:18.210Z,8.03
2018-04-06T08:39:46.740Z,7.93
2018-04-06T08:42:15.050Z,8.93
2018-04-06T08:44:44.065Z,9.73
2018-04-06T08:47:12.616Z,8.07
2018-04-06T08:49:41.848Z,7.27
2018-04-06T08:52:11.204Z,10.30
2018-04-06T08:54:39.506Z,9.57
2018-04-06T08:57:08.099Z,7.90
2018-04-06T08:59:36.972Z,10.20
2018-04-06T09:02:05.433Z,10.40
2018-04-06T09:04:33.784Z,9.43
2018-04-06T09:07:03.096Z,14.37
2018-04-06T09:09:31.461Z,8.27
2018-04-06T09:12:00.829Z,7.30
2018-04-06T09:14:29.238Z,5.03
2018-04-06T09:16:58.709Z,7.10
2018-04-06T09:19:27.267Z,7.07
2018-04-06T09:21:55.540Z,7.90
2018-04-06T09:24:23.925Z,6.77
2018-04-06T09:26:52.700Z,7.43
2018-04-06T09:29:21.059Z,6.63
2018-04-06T09:31:50.124Z,5.67
2018-04-06T09:34:18.571Z,7.43
2018-04-06T09:36:46.852Z,5.13
2018-04-06T09:39:15.224Z,6.10
2018-04-06T09:41:43.558Z,9.13
2018-04-06T09:44:11.984Z,5.77
2018-04-06T09:46:40.328Z,5.43
2018-04-06T09:49:09.609Z,3.43
2018-04-06T09:51:37.895Z,6.90
2018-04-06T09:54:06.947Z,7.33
2018-04-06T09:56:35.312Z,4.20
2018-04-06T09:59:03.792Z,4.53
2018-04-06T10:01:34.964Z,8.33
2018-04-06T10:04:03.299Z,5.80
2018-04-06T10:06:31.636Z,6.00
2018-04-06T10:09:00.006Z,6.47
2018-04-06T10:11:28.382Z,4.23
2018-04-06T10:13:57.443Z,6.87
2018-04-06T10:16:26.418Z,3.60
2018-04-06T10:18:55.683Z,6.10
2018-04-06T10:21:23.984Z,5.67
2018-04-06T10:23:53.034Z,4.03
2018-04-06T10:26:21.580Z,7.43
2018-04-06T10:28:49.958Z,6.17
2018-04-06T10:31:18.709Z,6.37
2018-04-06T10:33:46.989Z,7.37
2018-04-06T10:36:16.763Z,6.77
2018-04-06T10:38:45.553Z,5.97
2018-04-06T10:41:13.997Z,5.03
2018-04-06T10:43:43.028Z,6.23
2018-04-06T10:46:11.684Z,4.93
2018-04-06T10:48:40.248Z,6.03
2018-04-06T10:51:09.351Z,4.33
2018-04-06T10:53:38.472Z,6.40
2018-04-06T10:56:06.869Z,3.57
2018-04-06T10:58:35.589Z,4.53
2018-04-06T11:01:04.025Z,4.03
2018-04-06T11:03:32.560Z,4.40
2018-04-06T11:06:00.946Z,7.60
2018-04-06T11:08:30.097Z,3.93
2018-04-06T11:10:58.385Z,5.87
2018-04-06T11:13:26.659Z,4.00
2018-04-06T11:15:54.965Z,5.43
2018-04-06T11:18:23.416Z,5.23
2018-04-06T11:20:52.189Z,6.40
2018-04-06T11:23:20.784Z,6.30
2018-04-06T11:25:49.471Z,5.07
2018-04-06T11:28:17.948Z,5.00
2018-04-06T11:30:46.512Z,6.60
2018-04-06T11:33:14.800Z,4.03
2018-04-06T11:35:43.052Z,3.97
2018-04-06T11:38:11.416Z,5.33
2018-04-06T11:40:40.872Z,5.00
2018-04-06T11:43:11.006Z,3.87
2018-04-06T11:45:39.631Z,3.90
2018-04-06T11:48:09.048Z,3.33
2018-04-06T11:50:37.668Z,4.67
2018-04-06T11:53:06.087Z,3.90
2018-04-06T11:55:35.179Z,6.13
2018-04-06T11:58:03.562Z,8.83
2018-04-06T12:00:32.923Z,6.80
2018-04-06T12:03:01.339Z,3.47
2018-04-06T12:05:29.776Z,3.30
2018-04-06T12:07:58.242Z,3.30
2018-04-06T12:10:26.604Z,6.27
2018-04-06T12:12:54.908Z,4.80
2018-04-06T12:15:23.306Z,3.57
2018-04-06T12:17:51.912Z,2.47
2018-04-06T12:20:20.467Z,2.30
2018-04-06T12:22:49.025Z,3.07
2018-04-06T12:25:17.366Z,1.67
2018-04-06T12:27:45.924Z,2.70
2018-04-06T12:30:14.368Z,3.17
2018-04-06T12:32:42.988Z,3.97
2018-04-06T12:35:11.311Z,5.40
2018-04-06T12:37:39.751Z,3.30
2018-04-06T12:40:08.146Z,3.87
2018-04-06T12:42:36.475Z,5.17
2018-04-06T12:45:04.836Z,5.10
2018-04-06T12:47:33.127Z,3.47
2018-04-06T12:50:01.535Z,6.73
2018-04-06T12:52:30.092Z,3.20
2018-04-06T12:54:58.408Z,3.97
2018-04-06T12:57:26.927Z,4.30
2018-04-06T12:59:55.593Z,2.37
2018-04-06T13:02:24.123Z,5.77
2018-04-06T13:04:52.581Z,2.00
2018-04-06T13:07:20.997Z,2.10
2018-04-06T13:09:49.516Z,2.00
2018-04-06T13:12:18.488Z,4.73
2018-04-06T13:14:47.260Z,4.00
2018-04-06T13:17:16.550Z,2.03
2018-04-06T13:19:44.800Z,2.77
2018-04-06T13:22:13.231Z,2.40
2018-04-06T13:24:41.848Z,2.80
2018-04-06T13:27:11.175Z,7.20
2018-04-06T13:29:39.802Z,5.60
2018-04-06T13:32:09.220Z,3.87
2018-04-06T13:34:38.851Z,2.30
2018-04-06T13:37:07.411Z,3.30
2018-04-06T13:39:36.628Z,5.47
2018-04-06T13:42:05.707Z,2.60
2018-04-06T13:44:34.880Z,3.00
2018-04-06T13:47:03.224Z,3.20
2018-04-06T13:49:31.835Z,3.40
2018-04-06T13:52:00.263Z,2.77
2018-04-06T13:54:29.581Z,4.30
2018-04-06T13:56:58.696Z,5.17
2018-04-06T13:59:27.015Z,6.70
2018-04-06T14:01:55.584Z,2.37
2018-04-06T14:04:23.968Z,2.90
2018-04-06T14:06:52.426Z,4.20
2018-04-06T14:09:20.883Z,4.87
2018-04-06T14:11:50.123Z,4.03
2018-04-06T14:14:19.649Z,3.73
2018-04-06T14:16:48.949Z,5.90
2018-04-06T14:19:17.644Z,3.37
2018-04-06T14:21:46.094Z,4.10
2018-04-06T14:24:14.744Z,2.13
2018-04-06T14:26:43.168Z,5.50
2018-04-06T14:29:12.100Z,4.20
2018-04-06T14:31:41.457Z,3.33
2018-04-06T14:34:10.368Z,3.20
2018-04-06T14:36:38.803Z,6.23
2018-04-06T14:39:07.392Z,5.87
2018-04-06T14:41:36.668Z,2.60
2018-04-06T14:44:05.896Z,3.27
2018-04-06T14:46:34.571Z,3.60
2018-04-06T14:49:03.511Z,2.63
2018-04-06T14:51:32.130Z,5.60
2018-04-06T14:54:01.289Z,3.30
2018-04-06T14:56:29.744Z,4.93
2018-04-06T14:58:58.203Z,4.77
2018-04-06T15:01:26.653Z,2.97
2018-04-06T15:03:56.301Z,2.90
2018-04-06T15:06:24.904Z,3.83
2018-04-06T15:08:53.485Z,4.27
2018-04-06T15:11:22.322Z,4.67
2018-04-06T15:13:51.560Z,3.07
2018-04-06T15:16:20.228Z,4.40
2018-04-06T15:18:49.581Z,3.90
2018-04-06T15:21:17.929Z,4.30
2018-04-06T15:23:46.412Z,2.80
2018-04-06T15:26:14.711Z,2.43
2018-04-06T15:28:43.142Z,2.97
2018-04-06T15:31:12.376Z,3.43
2018-04-06T15:33:40.780Z,3.57
2018-04-06T15:36:09.279Z,3.83
2018-04-06T15:38:37.611Z,4.03
2018-04-06T15:41:06.094Z,4.60
2018-04-06T15:43:34.728Z,5.83
2018-04-06T15:46:03.048Z,3.07
2018-04-06T15:48:31.905Z,2.40
2018-04-06T15:51:02.664Z,2.30
2018-04-06T15:53:31.250Z,4.27
2018-04-06T15:55:59.936Z,2.93
2018-04-06T15:58:28.295Z,3.87
2018-04-06T16:00:57.829Z,3.80
2018-04-06T16:03:26.293Z,3.53
2018-04-06T16:05:54.797Z,4.10
2018-04-06T16:08:23.154Z,4.30
2018-04-06T16:10:51.430Z,4.27
2018-04-06T16:13:20.537Z,4.10
2018-04-06T16:15:49.082Z,3.90
2018-04-06T16:18:17.744Z,3.93
2018-04-06T16:20:46.307Z,4.70
2018-04-06T16:23:14.578Z,6.83
2018-04-06T16:25:43.294Z,4.30
2018-04-06T16:28:11.848Z,4.83
2018-04-06T16:30:40.294Z,3.23
2018-04-06T16:33:09.324Z,5.27
2018-04-06T16:35:37.832Z,4.93
2018-04-06T16:38:06.192Z,4.47
2018-04-06T16:40:34.544Z,5.30
2018-04-06T16:43:02.949Z,4.33
2018-04-06T16:45:31.286Z,6.20
2018-04-06T16:48:00.750Z,3.07
2018-04-06T16:50:29.365Z,3.67
2018-04-06T16:52:58.120Z,3.90
2018-04-06T16:55:26.488Z,3.13
2018-04-06T16:57:55.009Z,3.80
2018-04-06T17:00:24.276Z,4.90
2018-04-06T17:02:52.758Z,3.03
2018-04-06T17:05:21.153Z,3.90
2018-04-06T17:07:49.697Z,3.43
2018-04-06T17:10:18.689Z,2.83
2018-04-06T17:12:47.498Z,3.27
2018-04-06T17:15:15.913Z,2.43
2018-04-06T17:17:44.550Z,1.93
2018-04-06T17:20:12.918Z,2.30
2018-04-06T17:22:41.635Z,4.57
2018-04-06T17:25:10.165Z,3.50
2018-04-06T17:27:39.471Z,6.17
2018-04-06T17:30:07.838Z,3.90
2018-04-06T17:32:37.306Z,3.67
2018-04-06T17:35:05.735Z,5.73
2018-04-06T17:37:35.097Z,3.33
2018-04-06T17:40:03.896Z,2.50
2018-04-06T17:42:32.465Z,3.20
2018-04-06T17:45:00.845Z,4.27
2018-04-06T17:47:29.180Z,4.63
2018-04-06T17:49:57.464Z,5.53
2018-04-06T17:52:25.874Z,7.20
2018-04-06T17:54:54.454Z,3.13
2018-04-06T17:57:22.757Z,5.07
2018-04-06T17:59:51.068Z,3.80
2018-04-06T18:02:20.098Z,4.87
2018-04-06T18:04:48.804Z,4.13
2018-04-06T18:07:17.257Z,2.87
2018-04-06T18:09:45.766Z,3.33
2018-04-06T18:12:14.079Z,3.50
2018-04-06T18:14:43.085Z,6.40
2018-04-06T18:17:11.449Z,5.13
2018-04-06T18:19:40.602Z,5.37
2018-04-06T18:22:09.039Z,4.17
2018-04-06T18:24:38.152Z,3.73
2018-04-06T18:27:06.447Z,6.43
2018-04-06T18:29:35.241Z,2.40
2018-04-06T18:32:03.700Z,3.33
2018-04-06T18:34:32.425Z,4.63
2018-04-06T18:37:07.416Z,6.03
2018-04-06T18:39:35.982Z,3.63
2018-04-06T18:42:05.135Z,3.33
2018-04-06T18:44:33.835Z,4.87
2018-04-06T18:47:02.372Z,3.43
2018-04-06T18:49:30.842Z,4.87
2018-04-06T18:51:59.440Z,3.27
2018-04-06T18:54:27.900Z,2.47
2018-04-06T18:56:57.139Z,3.20
2018-04-06T18:59:25.637Z,5.40
2018-04-06T19:01:54.204Z,3.50
2018-04-06T19:04:23.074Z,4.47
2018-04-06T19:06:51.468Z,3.03
2018-04-06T19:09:19.878Z,4.30
2018-04-06T19:11:48.505Z,4.27
2018-04-06T19:14:17.524Z,2.90
2018-04-06T19:16:46.101Z,3.63
2018-04-06T19:19:14.456Z,5.80
2018-04-06T19:21:43.070Z,3.97
2018-04-06T19:24:11.464Z,6.87
2018-04-06T19:26:39.951Z,5.73
2018-04-06T19:29:08.732Z,3.77
2018-04-06T19:31:37.100Z,5.07
2018-04-06T19:34:05.620Z,3.10
2018-04-06T19:36:33.935Z,3.57
2018-04-06T19:39:02.344Z,5.23
2018-04-06T19:41:30.746Z,6.40
2018-04-06T19:43:59.221Z,4.47
2018-04-06T19:46:28.001Z,4.87
2018-04-06T19:48:56.308Z,3.93
2018-04-06T19:51:24.885Z,4.57
2018-04-06T19:53:53.355Z,4.80
2018-04-06T19:56:21.742Z,3.00
2018-04-06T19:58:50.254Z,7.10
2018-04-06T20:01:19.357Z,6.00
2018-04-06T20:03:47.884Z,4.13
2018-04-06T20:06:16.674Z,3.87
2018-04-06T20:08:45.561Z,6.13
2018-04-06T20:11:13.940Z,4.50
2018-04-06T20:13:42.624Z,4.43
2018-04-06T20:16:10.952Z,5.00
2018-04-06T20:18:40.523Z,5.00
2018-04-06T20:21:08.977Z,2.90
2018-04-06T20:23:37.327Z,4.53
2018-04-06T20:26:06.134Z,4.93
2018-04-06T20:28:34.717Z,2.83
2018-04-06T20:31:03.254Z,4.50
2018-04-06T20:33:31.688Z,2.87
2018-04-06T20:35:59.977Z,3.00
2018-04-06T20:38:28.397Z,3.27
2018-04-06T20:40:56.989Z,4.63
2018-04-06T20:43:26.690Z,5.13
2018-04-06T20:45:55.368Z,4.53
2018-04-06T20:48:25.860Z,3.93
2018-04-06T20:50:54.752Z,3.33
2018-04-06T20:53:23.126Z,4.03
2018-04-06T20:55:51.548Z,4.70
2018-04-06T20:58:20.565Z,4.10
2018-04-06T21:00:49.994Z,3.60
2018-04-06T21:03:18.363Z,5.50
2018-04-06T21:05:46.779Z,3.50
2018-04-06T21:08:15.173Z,5.40
2018-04-06T21:10:43.628Z,4.77
2018-04-06T21:13:12.372Z,3.47
2018-04-06T21:15:41.758Z,4.80
2018-04-06T21:18:10.399Z,4.53
2018-04-06T21:20:38.843Z,3.80
2018-04-06T21:23:08.065Z,3.80
2018-04-06T21:25:36.323Z,4.30
2018-04-06T21:28:05.993Z,4.63
2018-04-06T21:30:34.321Z,3.47
2018-04-06T21:33:03.167Z,3.30
2018-04-06T21:35:31.914Z,4.57
2018-04-06T21:38:00.423Z,5.37
2018-04-06T21:40:31.870Z,5.33
2018-04-06T21:43:00.148Z,3.80
2018-04-06T21:45:28.531Z,6.23
2018-04-06T21:47:57.108Z,7.57
2018-04-06T21:50:25.509Z,6.37
2018-04-06T21:52:54.163Z,5.07
2018-04-06T21:55:22.616Z,5.20
2018-04-06T21:57:51.639Z,6.30
2018-04-06T22:00:20.151Z,5.27
2018-04-06T22:02:48.890Z,5.90
2018-04-06T22:05:17.436Z,4.50
2018-04-06T22:07:46.161Z,4.90
2018-04-06T22:10:14.541Z,5.47
2018-04-06T22:12:43.089Z,4.40
2018-04-06T22:15:12.212Z,5.40
2018-04-06T22:17:41.427Z,8.00
2018-04-06T22:20:09.800Z,4.13
2018-04-06T22:22:38.086Z,6.53
2018-04-06T22:25:06.349Z,6.60
2018-04-06T22:27:34.803Z,4.47
2018-04-06T22:30:04.168Z,3.63
2018-04-06T22:32:32.922Z,5.17
2018-04-06T22:35:01.360Z,3.97
2018-04-06T22:37:29.667Z,5.40
2018-04-06T22:39:58.881Z,5.43
2018-04-06T22:42:27.169Z,7.60
2018-04-06T22:44:55.653Z,5.50
2018-04-06T22:47:24.213Z,6.67
2018-04-06T22:49:52.476Z,9.40
2018-04-06T22:52:21.683Z,6.67
2018-04-06T22:54:50.994Z,8.60
2018-04-06T22:57:19.301Z,8.80
2018-04-06T22:59:47.564Z,5.33
2018-04-06T23:02:16.097Z,5.30
2018-04-06T23:04:44.849Z,6.77
2018-04-06T23:07:13.873Z,6.37
2018-04-06T23:09:42.565Z,7.67
2018-04-06T23:12:10.845Z,5.00
2018-04-06T23:14:39.161Z,5.63
2018-04-06T23:17:07.763Z,5.73
2018-04-06T23:19:36.296Z,4.67
2018-04-06T23:22:05.628Z,4.73
2018-04-06T23:24:34.127Z,4.30
2018-04-06T23:27:02.407Z,6.57
2018-04-06T23:29:30.854Z,3.40
2018-04-06T23:31:59.116Z,3.87
2018-04-06T23:34:28.341Z,5.93
2018-04-06T23:36:57.060Z,7.47
2018-04-06T23:39:25.592Z,7.43
2018-04-06T23:41:54.730Z,4.30
2018-04-06T23:44:23.012Z,8.43
2018-04-06T23:46:51.419Z,6.10
2018-04-06T23:49:19.759Z,6.50
2018-04-06T23:51:48.031Z,3.97
2018-04-06T23:54:16.344Z,4.87
2018-04-06T23:56:44.927Z,4.20
2018-04-06T23:59:13.253Z,4.30
